Time;durP1;ratioP1;P1;durP2;ratioP2;P2;SDS_P1;SDS_P2;PMS_P1;PMS_P2;Temp;Humidity;BMP_temperature;BMP_pressure;BME280_temperature;BME280_humidity;BME280_pressure;Samples;Min_cycle;Max_cycle;Signal;HPM_P1;HPM_P2
2023/09/11 00:00:29;;;;;;;25.70;22.10;;;20.40;99.90;;;;;;5017402;28;20505;-82
2023/09/11 00:02:55;;;;;;;25.45;22.67;;;20.40;99.90;;;;;;5033133;28;20087;-82
2023/09/11 00:05:20;;;;;;;26.88;21.80;;;20.40;99.90;;;;;;5016649;28;20080;-82
2023/09/11 00:07:46;;;;;;;26.10;22.98;;;20.40;99.90;;;;;;5016590;28;20081;-82
2023/09/11 00:10:12;;;;;;;28.95;22.05;;;20.30;99.90;;;;;;4984366;28;20076;-82
2023/09/11 00:12:37;;;;;;;24.80;21.98;;;20.30;99.90;;;;;;5000677;28;20050;-82
2023/09/11 00:15:04;;;;;;;26.38;22.80;;;20.30;99.90;;;;;;5016882;28;20128;-82
2023/09/11 00:17:30;;;;;;;22.98;20.58;;;20.20;99.90;;;;;;5016538;28;20687;-82
2023/09/11 00:19:55;;;;;;;24.08;21.48;;;20.30;99.90;;;;;;5016275;28;20048;-82
2023/09/11 00:22:21;;;;;;;24.52;21.50;;;20.20;99.90;;;;;;5026367;28;20049;-82
2023/09/11 00:24:47;;;;;;;25.80;21.90;;;20.20;99.90;;;;;;5016380;28;20045;-82
2023/09/11 00:27:13;;;;;;;29.92;21.95;;;20.20;99.90;;;;;;4983753;28;20600;-83
2023/09/11 00:29:38;;;;;;;27.58;22.08;;;20.10;99.90;;;;;;5016278;28;20041;-82
2023/09/11 00:32:04;;;;;;;25.27;20.95;;;20.20;99.90;;;;;;5016307;28;20446;-82
2023/09/11 00:34:30;;;;;;;27.63;21.45;;;20.30;99.90;;;;;;5030998;28;20425;-82
2023/09/11 00:36:57;;;;;;;28.10;20.75;;;20.30;99.90;;;;;;5028932;28;20038;-82
2023/09/11 00:39:23;;;;;;;24.00;21.13;;;20.30;99.90;;;;;;5033822;28;20079;-82
2023/09/11 00:41:49;;;;;;;25.17;20.83;;;20.30;99.90;;;;;;5033763;28;20044;-82
2023/09/11 00:44:15;;;;;;;25.73;20.50;;;20.30;99.90;;;;;;5015893;28;20042;-82
2023/09/11 00:46:41;;;;;;;26.25;20.27;;;20.30;99.90;;;;;;5033642;28;20041;-83
2023/09/11 00:49:07;;;;;;;27.83;20.17;;;20.40;99.90;;;;;;5011053;28;20124;-82
2023/09/11 00:51:35;;;;;;;25.02;20.83;;;20.40;99.90;;;;;;5021230;28;20042;-81
2023/09/11 00:54:01;;;;;;;26.02;20.00;;;20.40;99.90;;;;;;5032289;28;20500;-83
2023/09/11 00:56:27;;;;;;;24.08;19.27;;;20.30;99.90;;;;;;5015755;28;20426;-83
2023/09/11 00:58:53;;;;;;;26.95;20.20;;;20.40;99.90;;;;;;4999495;28;20103;-83
2023/09/11 01:01:21;;;;;;;26.52;19.52;;;20.40;99.90;;;;;;4982697;28;20108;-83
2023/09/11 01:03:48;;;;;;;26.98;19.83;;;20.40;99.90;;;;;;5033261;28;20061;-82
2023/09/11 01:06:14;;;;;;;22.05;19.30;;;20.40;99.90;;;;;;5032132;28;20045;-82
2023/09/11 01:08:40;;;;;;;26.33;19.35;;;20.40;99.90;;;;;;5014865;28;20445;-83
2023/09/11 01:11:06;;;;;;;29.90;20.48;;;20.30;99.90;;;;;;5015846;28;20064;-82
2023/09/11 01:13:32;;;;;;;30.13;19.80;;;20.30;99.90;;;;;;5015399;28;20049;-83
2023/09/11 01:16:23;;;;;;;25.10;19.65;;;20.30;99.90;;;;;;4988016;28;20053;-83
2023/09/11 01:19:12;;;;;;;29.63;20.38;;;20.30;99.90;;;;;;5013269;28;20049;-82
2023/09/11 01:21:38;;;;;;;23.88;17.75;;;20.30;99.90;;;;;;5015151;28;20091;-83
2023/09/11 01:24:03;;;;;;;22.52;20.10;;;20.30;99.90;;;;;;5031338;28;20076;-83
2023/09/11 01:27:03;;;;;;;31.15;21.40;;;20.30;99.90;;;;;;5014952;28;20091;-82
2023/09/11 01:29:33;;;;;;;22.73;19.92;;;20.30;99.90;;;;;;5031495;28;20041;-82
2023/09/11 01:32:02;;;;;;;26.52;20.80;;;20.20;99.90;;;;;;5014862;28;20076;-83
2023/09/11 01:34:28;;;;;;;28.98;20.80;;;20.20;99.90;;;;;;5015171;28;20061;-83
2023/09/11 01:36:53;;;;;;;26.00;20.10;;;20.20;99.90;;;;;;4998581;28;20533;-82
2023/09/11 01:39:19;;;;;;;24.90;20.17;;;20.20;99.90;;;;;;5012914;28;20501;-82
2023/09/11 01:41:47;;;;;;;28.83;19.60;;;20.10;99.90;;;;;;5031309;28;20042;-83
2023/09/11 01:44:22;;;;;;;28.30;20.60;;;20.10;99.90;;;;;;5030693;28;20029;-83
2023/09/11 01:46:50;;;;;;;26.10;21.17;;;20.10;99.90;;;;;;5031363;28;20122;-83
2023/09/11 01:49:19;;;;;;;27.65;19.83;;;20.10;99.90;;;;;;5014535;28;20045;-83
2023/09/11 01:51:47;;;;;;;23.48;20.23;;;20.20;99.90;;;;;;5014552;28;20084;-83
2023/09/11 01:54:13;;;;;;;26.33;20.75;;;20.10;99.90;;;;;;5015698;28;20457;-83
2023/09/11 01:56:39;;;;;;;25.50;19.98;;;20.10;99.90;;;;;;4989114;28;20041;-81
2023/09/11 01:59:05;;;;;;;24.42;21.15;;;20.10;99.90;;;;;;5029862;28;20036;-81
2023/09/11 02:01:31;;;;;;;24.75;21.17;;;20.10;99.90;;;;;;5017581;28;20079;-83
2023/09/11 02:03:56;;;;;;;22.67;19.95;;;20.10;99.90;;;;;;5013659;28;20133;-83
2023/09/11 02:06:22;;;;;;;25.67;20.48;;;20.10;99.90;;;;;;5014121;28;20042;-83
2023/09/11 02:08:48;;;;;;;25.45;20.42;;;20.00;99.90;;;;;;5001215;28;20450;-83
2023/09/11 02:11:13;;;;;;;28.63;20.92;;;19.90;99.90;;;;;;5008169;28;20037;-83
2023/09/11 02:13:40;;;;;;;27.63;21.25;;;19.90;99.90;;;;;;5014032;28;20029;-83
2023/09/11 02:16:06;;;;;;;27.90;21.35;;;19.90;99.90;;;;;;5028949;28;20398;-83
2023/09/11 02:18:31;;;;;;;24.23;20.42;;;19.90;99.90;;;;;;5002964;28;20116;-83
2023/09/11 02:20:57;;;;;;;29.70;22.05;;;19.80;99.90;;;;;;5013784;28;20095;-84
2023/09/11 02:23:23;;;;;;;31.40;21.20;;;19.80;99.90;;;;;;5010167;28;20073;-83
2023/09/11 02:25:49;;;;;;;22.42;20.10;;;19.80;99.90;;;;;;5013917;28;20037;-83
2023/09/11 02:28:15;;;;;;;23.38;20.08;;;19.90;99.90;;;;;;5014025;28;20045;-83
2023/09/11 02:30:40;;;;;;;26.10;20.40;;;19.90;99.90;;;;;;5005088;28;20041;-83
2023/09/11 02:33:06;;;;;;;24.63;20.73;;;19.80;99.90;;;;;;5003145;28;20443;-83
2023/09/11 02:35:32;;;;;;;25.90;20.80;;;19.80;99.90;;;;;;4997069;28;20042;-83
2023/09/11 02:37:58;;;;;;;28.80;21.63;;;19.80;99.90;;;;;;5012994;28;20560;-83
2023/09/11 02:40:24;;;;;;;26.00;21.83;;;19.80;99.90;;;;;;5014033;28;20052;-82
2023/09/11 02:42:50;;;;;;;25.80;20.23;;;19.80;99.90;;;;;;5013871;28;20404;-82
2023/09/11 02:45:16;;;;;;;27.02;20.30;;;19.80;99.90;;;;;;5029741;28;20056;-83
2023/09/11 02:47:41;;;;;;;32.10;19.42;;;19.70;99.90;;;;;;4997525;28;20041;-83
2023/09/11 02:50:07;;;;;;;24.92;19.90;;;19.80;99.90;;;;;;4997666;28;20180;-83
2023/09/11 02:52:33;;;;;;;23.27;18.70;;;19.80;99.90;;;;;;4997316;28;20117;-82
2023/09/11 02:54:59;;;;;;;27.33;19.33;;;19.70;99.90;;;;;;4994088;28;20041;-82
2023/09/11 02:57:25;;;;;;;31.48;20.50;;;19.70;99.90;;;;;;5013533;28;20041;-82
2023/09/11 02:59:55;;;;;;;29.15;20.67;;;19.60;99.90;;;;;;5030050;28;20775;-82
2023/09/11 03:02:21;;;;;;;26.00;21.33;;;19.60;99.90;;;;;;5014960;28;20052;-81
2023/09/11 03:04:50;;;;;;;26.98;20.27;;;19.60;99.90;;;;;;5016621;28;20094;-81
2023/09/11 03:07:17;;;;;;;26.83;20.23;;;19.60;99.90;;;;;;5033774;28;20045;-82
2023/09/11 03:09:46;;;;;;;27.35;19.95;;;19.60;99.90;;;;;;5017447;28;20048;-82
2023/09/11 03:12:12;;;;;;;24.77;21.35;;;19.60;99.90;;;;;;5000080;28;20124;-82
2023/09/11 03:14:39;;;;;;;26.27;21.02;;;19.60;99.90;;;;;;5032586;28;20133;-82
2023/09/11 03:17:05;;;;;;;27.45;20.63;;;19.60;99.90;;;;;;5017674;28;20042;-82
2023/09/11 03:19:34;;;;;;;32.15;21.00;;;19.60;99.90;;;;;;5033684;28;20692;-82
2023/09/11 03:22:00;;;;;;;24.73;19.50;;;19.60;99.90;;;;;;5016945;28;20049;-82
2023/09/11 03:24:26;;;;;;;22.52;19.05;;;19.50;99.90;;;;;;5017231;28;20393;-82
2023/09/11 03:26:52;;;;;;;23.27;20.48;;;19.50;99.90;;;;;;5001188;28;20110;-82
2023/09/11 03:29:18;;;;;;;22.73;19.63;;;19.50;99.90;;;;;;5033329;28;20049;-82
2023/09/11 03:31:44;;;;;;;26.20;20.08;;;19.40;99.90;;;;;;5000894;28;20037;-82
2023/09/11 03:34:09;;;;;;;25.63;20.40;;;19.30;99.90;;;;;;5017080;28;20100;-82
2023/09/11 03:36:35;;;;;;;23.33;20.08;;;19.20;99.90;;;;;;5000292;28;20037;-82
2023/09/11 03:39:02;;;;;;;26.48;21.00;;;19.20;99.90;;;;;;5001244;28;20037;-82
2023/09/11 03:41:28;;;;;;;20.90;18.75;;;19.10;99.90;;;;;;5033808;28;20120;-83
2023/09/11 03:43:54;;;;;;;24.67;20.52;;;19.10;99.90;;;;;;5033821;28;20133;-82
2023/09/11 03:46:20;;;;;;;21.65;18.60;;;19.10;99.90;;;;;;4983536;28;20412;-82
2023/09/11 03:48:47;;;;;;;27.63;21.10;;;19.10;99.90;;;;;;5017011;28;20041;-82
2023/09/11 03:51:13;;;;;;;29.95;21.20;;;19.10;99.90;;;;;;5034017;28;20098;-83
2023/09/11 03:53:42;;;;;;;27.02;21.27;;;19.00;99.90;;;;;;5016819;28;20045;-83
2023/09/11 03:56:12;;;;;;;28.05;20.15;;;18.90;99.90;;;;;;5001093;28;20041;-83
2023/09/11 03:58:39;;;;;;;27.58;20.45;;;18.90;99.90;;;;;;5033287;28;20128;-82
2023/09/11 04:01:04;;;;;;;22.75;18.98;;;18.90;99.90;;;;;;5000904;28;20493;-83
2023/09/11 04:03:30;;;;;;;27.73;20.52;;;18.90;99.90;;;;;;5016586;28;20079;-84
2023/09/11 04:05:56;;;;;;;22.98;20.50;;;18.80;99.90;;;;;;5013070;28;20110;-83
2023/09/11 04:08:22;;;;;;;23.75;20.35;;;18.80;99.90;;;;;;5005837;28;20509;-83
2023/09/11 04:10:47;;;;;;;26.08;20.70;;;18.80;99.90;;;;;;5033674;28;20038;-82
2023/09/11 04:13:13;;;;;;;24.73;20.30;;;18.80;99.90;;;;;;5027904;28;20049;-82
2023/09/11 04:15:40;;;;;;;25.92;22.27;;;18.80;99.90;;;;;;5014290;28;20511;-82
2023/09/11 04:18:06;;;;;;;25.38;20.42;;;18.70;99.90;;;;;;5016546;28;20473;-83
2023/09/11 04:20:35;;;;;;;26.67;20.05;;;18.70;99.90;;;;;;5032219;28;20041;-82
2023/09/11 04:23:02;;;;;;;26.52;21.88;;;18.80;99.90;;;;;;5033173;28;20041;-83
2023/09/11 04:25:29;;;;;;;28.08;20.88;;;18.80;99.90;;;;;;5016348;28;20046;-82
2023/09/11 04:27:55;;;;;;;28.67;21.10;;;18.90;99.90;;;;;;4999895;28;20073;-82
2023/09/11 04:30:22;;;;;;;26.88;19.95;;;18.90;99.90;;;;;;5016250;28;20033;-82
2023/09/11 04:32:47;;;;;;;28.50;22.48;;;18.80;99.90;;;;;;5000059;28;20057;-82
2023/09/11 04:35:14;;;;;;;30.08;21.63;;;18.90;99.90;;;;;;5000276;28;20041;-82
2023/09/11 04:37:40;;;;;;;21.50;19.20;;;18.90;99.90;;;;;;5016509;28;20041;-82
2023/09/11 04:40:06;;;;;;;24.00;20.15;;;18.90;99.90;;;;;;5016403;28;20504;-83
2023/09/11 04:42:32;;;;;;;25.33;19.23;;;18.80;99.90;;;;;;5032353;28;20489;-82
2023/09/11 04:44:59;;;;;;;23.70;19.25;;;18.80;99.90;;;;;;5016204;28;20053;-82
2023/09/11 04:47:31;;;;;;;24.00;19.92;;;18.70;99.90;;;;;;5032206;28;20098;-82
2023/09/11 04:49:57;;;;;;;25.58;19.88;;;18.80;99.90;;;;;;5015754;28;20489;-82
2023/09/11 04:52:23;;;;;;;21.90;19.52;;;18.70;99.90;;;;;;5015840;28;20033;-82
2023/09/11 04:54:49;;;;;;;24.10;19.70;;;18.60;99.90;;;;;;5016149;28;20045;-82
2023/09/11 04:57:15;;;;;;;25.65;19.92;;;18.60;99.90;;;;;;5015858;28;20615;-83
2023/09/11 04:59:42;;;;;;;24.10;20.08;;;18.60;99.90;;;;;;4999743;28;20550;-82
2023/09/11 05:02:11;;;;;;;30.35;21.90;;;18.60;99.90;;;;;;5015141;28;20045;-82
2023/09/11 05:04:38;;;;;;;22.60;20.25;;;18.60;99.90;;;;;;5013893;28;20065;-82
2023/09/11 05:07:03;;;;;;;23.58;20.20;;;18.60;99.90;;;;;;5028343;28;20037;-82
2023/09/11 05:09:31;;;;;;;30.38;22.48;;;18.60;99.90;;;;;;4982674;28;20367;-83
2023/09/11 05:11:57;;;;;;;29.58;21.05;;;18.60;99.90;;;;;;5015102;28;20475;-82
2023/09/11 05:14:23;;;;;;;23.58;20.38;;;18.60;99.90;;;;;;5015635;28;20125;-82
2023/09/11 05:16:49;;;;;;;29.45;23.77;;;18.60;99.90;;;;;;5015307;28;20413;-82
2023/09/11 05:19:15;;;;;;;24.88;22.08;;;18.60;99.90;;;;;;5030003;28;20124;-82
2023/09/11 05:21:41;;;;;;;28.08;21.48;;;18.70;99.90;;;;;;4996022;28;20438;-82
2023/09/11 05:24:07;;;;;;;25.83;21.92;;;18.70;99.90;;;;;;5028939;28;20124;-82
2023/09/11 05:26:33;;;;;;;29.75;23.88;;;18.70;99.90;;;;;;5014539;28;20120;-82
2023/09/11 05:28:59;;;;;;;27.17;22.45;;;18.70;99.90;;;;;;4998438;28;20045;-82
2023/09/11 05:31:24;;;;;;;26.80;22.70;;;18.70;99.90;;;;;;5015149;28;20037;-82
2023/09/11 05:33:50;;;;;;;29.55;24.15;;;18.70;99.90;;;;;;5014626;28;20563;-82
2023/09/11 05:36:16;;;;;;;29.05;23.75;;;18.80;99.90;;;;;;5014729;28;20060;-82
2023/09/11 05:38:42;;;;;;;31.48;23.95;;;18.80;99.90;;;;;;4979348;28;20041;-82
2023/09/11 05:41:07;;;;;;;26.45;23.60;;;18.80;99.90;;;;;;5010739;28;20552;-82
2023/09/11 05:43:33;;;;;;;27.80;23.15;;;18.80;99.90;;;;;;5000710;28;20053;-82
2023/09/11 05:45:59;;;;;;;31.23;23.38;;;18.80;99.90;;;;;;5003293;28;20128;-83
2023/09/11 05:48:25;;;;;;;32.92;24.98;;;18.80;99.90;;;;;;5034589;28;20072;-82
2023/09/11 05:50:50;;;;;;;28.35;24.45;;;18.80;99.90;;;;;;4982054;28;20437;-82
2023/09/11 05:53:16;;;;;;;32.80;25.75;;;18.80;99.90;;;;;;4979234;28;20516;-82
2023/09/11 05:55:42;;;;;;;32.03;25.67;;;18.90;99.90;;;;;;4973885;28;20469;-82
2023/09/11 05:58:08;;;;;;;41.00;26.73;;;18.90;99.90;;;;;;4998350;28;20050;-82
2023/09/11 06:00:33;;;;;;;31.10;25.75;;;18.90;99.90;;;;;;5030705;28;20419;-82
2023/09/11 06:02:59;;;;;;;30.20;25.95;;;19.00;99.90;;;;;;5014695;28;20045;-82
2023/09/11 06:05:25;;;;;;;32.97;26.83;;;19.00;99.90;;;;;;5014500;28;20041;-82
2023/09/11 06:07:51;;;;;;;37.47;26.58;;;19.00;99.90;;;;;;5014400;28;20041;-82
2023/09/11 06:10:17;;;;;;;32.75;25.25;;;19.10;99.90;;;;;;5030798;28;20105;-82
2023/09/11 06:12:43;;;;;;;33.03;26.00;;;19.20;99.90;;;;;;5014171;28;20117;-82
2023/09/11 06:15:09;;;;;;;35.28;27.13;;;19.20;99.90;;;;;;4990527;28;20103;-82
2023/09/11 06:17:35;;;;;;;36.40;26.05;;;19.30;99.90;;;;;;5030601;28;20041;-82
2023/09/11 06:20:01;;;;;;;36.80;25.80;;;19.30;99.90;;;;;;5030699;28;20048;-82
2023/09/11 06:22:27;;;;;;;30.35;25.10;;;19.30;99.90;;;;;;5014618;28;20052;-82
2023/09/11 06:24:52;;;;;;;29.25;23.90;;;19.40;99.90;;;;;;4998339;28;20041;-82
2023/09/11 06:27:18;;;;;;;31.75;25.20;;;19.40;99.90;;;;;;4998425;28;20039;-82
2023/09/11 06:29:44;;;;;;;34.35;24.33;;;19.50;99.90;;;;;;5037112;28;20037;-82
2023/09/11 06:32:15;;;;;;;33.38;23.95;;;19.60;99.90;;;;;;5044427;28;20041;-82
2023/09/11 06:34:41;;;;;;;32.42;23.77;;;19.60;99.90;;;;;;5016129;28;20068;-83
2023/09/11 06:37:09;;;;;;;33.85;24.20;;;19.70;99.90;;;;;;5016508;28;20061;-82
2023/09/11 06:39:35;;;;;;;36.58;25.27;;;19.80;99.90;;;;;;5024910;28;20041;-82
2023/09/11 06:42:01;;;;;;;31.15;22.48;;;19.80;99.90;;;;;;5035245;28;20052;-82
2023/09/11 06:44:26;;;;;;;30.80;24.58;;;19.90;99.90;;;;;;5020025;28;20041;-82
2023/09/11 06:46:52;;;;;;;28.58;23.33;;;20.00;99.90;;;;;;5008629;28;20172;-82
2023/09/11 06:49:18;;;;;;;38.67;24.38;;;20.10;99.90;;;;;;5009015;28;20045;-82
2023/09/11 06:51:44;;;;;;;31.13;23.48;;;20.20;99.90;;;;;;5017893;28;20044;-82
2023/09/11 06:54:12;;;;;;;28.73;22.90;;;20.20;99.90;;;;;;5034569;28;20037;-82
2023/09/11 06:56:40;;;;;;;28.27;22.13;;;20.30;99.90;;;;;;5034830;28;20081;-82
2023/09/11 06:59:07;;;;;;;37.08;21.98;;;20.40;99.90;;;;;;5018051;28;20052;-82
2023/09/11 07:01:38;;;;;;;28.77;22.35;;;20.50;99.90;;;;;;5035268;28;20053;-82
2023/09/11 07:04:11;;;;;;;29.30;20.98;;;20.60;99.90;;;;;;5017695;28;20045;-82
2023/09/11 07:06:38;;;;;;;28.65;21.17;;;20.70;99.90;;;;;;5026975;28;20045;-82
2023/09/11 07:09:05;;;;;;;26.50;21.40;;;20.80;99.90;;;;;;5001689;28;20045;-82
2023/09/11 07:11:30;;;;;;;32.45;21.52;;;21.00;99.90;;;;;;5017852;28;20117;-81
2023/09/11 07:13:56;;;;;;;29.42;21.83;;;21.10;99.90;;;;;;5001180;28;20120;-81
2023/09/11 07:16:22;;;;;;;24.85;20.10;;;21.20;99.90;;;;;;5017494;28;20037;-81
2023/09/11 07:18:48;;;;;;;24.98;19.20;;;21.30;99.90;;;;;;5000884;28;20556;-82
2023/09/11 07:21:14;;;;;;;27.95;20.48;;;21.50;99.90;;;;;;5017378;28;20056;-82
2023/09/11 07:23:39;;;;;;;27.60;19.70;;;21.60;99.90;;;;;;5016867;28;20033;-81
2023/09/11 07:26:05;;;;;;;28.15;20.55;;;21.70;99.90;;;;;;5001012;28;20092;-81
2023/09/11 07:28:33;;;;;;;34.15;21.38;;;21.70;99.90;;;;;;4983955;28;20049;-80
2023/09/11 07:30:59;;;;;;;29.77;21.20;;;21.80;99.90;;;;;;5034032;28;20041;-82
2023/09/11 07:33:25;;;;;;;27.50;20.35;;;21.90;99.90;;;;;;5033329;28;20060;-81
2023/09/11 07:35:50;;;;;;;30.20;20.25;;;22.00;99.90;;;;;;5033876;28;20120;-81
2023/09/11 07:38:16;;;;;;;33.08;20.42;;;22.00;99.90;;;;;;5016138;28;20132;-81
2023/09/11 07:40:43;;;;;;;32.08;21.92;;;22.00;99.90;;;;;;5017670;28;20403;-81
2023/09/11 07:43:08;;;;;;;33.10;21.77;;;22.10;99.90;;;;;;4984244;28;20053;-81
2023/09/11 07:45:34;;;;;;;28.58;20.98;;;22.10;99.90;;;;;;5016309;28;20041;-81
2023/09/11 07:48:00;;;;;;;27.10;20.75;;;22.20;99.90;;;;;;5014908;28;20043;-81
2023/09/11 07:50:26;;;;;;;31.20;20.85;;;22.30;99.90;;;;;;5015892;28;20531;-82
2023/09/11 07:52:52;;;;;;;27.38;20.00;;;22.40;99.90;;;;;;5032735;28;20532;-82
2023/09/11 07:55:17;;;;;;;27.92;20.17;;;22.50;99.90;;;;;;5015042;28;20128;-82
2023/09/11 07:57:43;;;;;;;29.60;20.63;;;22.60;99.90;;;;;;4998957;28;20049;-81
2023/09/11 08:00:10;;;;;;;26.80;19.88;;;22.70;99.90;;;;;;5032183;28;20045;-82
2023/09/11 08:02:36;;;;;;;28.77;19.35;;;22.70;99.90;;;;;;5013933;28;20102;-81
2023/09/11 08:05:01;;;;;;;30.08;19.27;;;22.80;99.90;;;;;;5023391;28;20124;-82
2023/09/11 08:07:27;;;;;;;24.15;19.02;;;22.90;99.90;;;;;;5016351;28;20041;-82
2023/09/11 08:09:53;;;;;;;24.17;18.33;;;23.00;99.90;;;;;;5032699;28;20041;-82
2023/09/11 08:12:19;;;;;;;24.30;18.48;;;23.10;99.90;;;;;;5023706;28;20084;-82
2023/09/11 08:14:45;;;;;;;29.98;18.25;;;23.20;99.90;;;;;;5007589;28;20064;-81
2023/09/11 08:17:11;;;;;;;23.58;17.88;;;23.40;99.90;;;;;;5016079;28;20069;-81
2023/09/11 08:19:37;;;;;;;25.63;17.83;;;23.50;99.90;;;;;;5016124;28;20508;-82
2023/09/11 08:22:03;;;;;;;27.90;16.77;;;23.50;99.90;;;;;;5032474;28;20068;-82
2023/09/11 08:24:29;;;;;;;21.00;16.52;;;23.70;99.90;;;;;;5031806;28;20041;-82
2023/09/11 08:26:55;;;;;;;21.55;16.08;;;23.80;99.90;;;;;;4999077;28;20042;-81
2023/09/11 08:29:21;;;;;;;22.13;15.70;;;23.90;99.90;;;;;;4998721;28;20042;-81
2023/09/11 08:31:47;;;;;;;23.08;16.73;;;24.00;99.90;;;;;;5015760;28;20037;-82
2023/09/11 08:34:13;;;;;;;19.80;14.30;;;24.00;99.90;;;;;;4999015;28;20058;-81
2023/09/11 08:36:39;;;;;;;18.25;14.80;;;24.00;99.90;;;;;;4999208;28;20451;-82
2023/09/11 08:39:05;;;;;;;21.95;14.48;;;24.10;99.90;;;;;;5028382;28;20037;-82
2023/09/11 08:41:31;;;;;;;26.67;14.88;;;24.30;99.90;;;;;;4993133;28;20132;-82
2023/09/11 08:43:57;;;;;;;18.85;13.60;;;24.40;99.90;;;;;;5019245;28;20056;-82
2023/09/11 08:46:26;;;;;;;19.20;13.68;;;24.60;99.90;;;;;;5033801;28;20445;-81
2023/09/11 08:48:59;;;;;;;18.10;12.88;;;24.70;99.90;;;;;;5032535;28;20108;-82
2023/09/11 08:51:32;;;;;;;20.42;13.07;;;24.90;99.90;;;;;;5031959;28;20821;-82
2023/09/11 08:54:00;;;;;;;22.73;13.95;;;25.00;99.90;;;;;;5019768;28;20045;-81
2023/09/11 08:56:26;;;;;;;22.55;14.00;;;25.20;99.90;;;;;;5009051;28;20125;-82
2023/09/11 08:58:53;;;;;;;21.80;12.52;;;25.30;99.90;;;;;;5031572;28;20047;-82
2023/09/11 09:01:20;;;;;;;17.70;12.10;;;25.40;99.90;;;;;;4998293;28;20117;-81
2023/09/11 09:03:48;;;;;;;17.33;11.82;;;25.50;99.90;;;;;;5015459;28;20087;-82
2023/09/11 09:06:16;;;;;;;17.20;11.93;;;25.60;99.90;;;;;;5032278;28;20155;-82
2023/09/11 09:08:43;;;;;;;17.92;12.20;;;25.70;99.90;;;;;;5015534;28;20037;-81
2023/09/11 09:11:08;;;;;;;18.58;12.35;;;25.80;99.90;;;;;;5031622;28;20045;-80
2023/09/11 09:13:36;;;;;;;19.95;12.32;;;25.90;99.90;;;;;;5014194;28;20045;-81
2023/09/11 09:16:02;;;;;;;22.42;12.45;;;26.00;99.90;;;;;;5030994;28;20509;-82
2023/09/11 09:18:29;;;;;;;19.80;11.73;;;26.20;99.90;;;;;;5030897;28;20053;-81
2023/09/11 09:20:55;;;;;;;15.88;11.57;;;26.20;99.90;;;;;;5014202;28;20045;-81
2023/09/11 09:23:39;;;;;;;22.83;11.23;;;26.30;99.90;;;;;;5014205;28;20120;-81
2023/09/11 09:26:09;;;;;;;16.95;10.05;;;26.40;99.90;;;;;;5014624;28;20034;-82
2023/09/11 09:28:47;;;;;;;15.85;10.80;;;26.40;99.90;;;;;;4998267;28;20069;-82
2023/09/11 09:31:25;;;;;;;14.88;10.50;;;26.50;99.90;;;;;;5031162;28;20044;-82
2023/09/11 09:33:53;;;;;;;17.60;10.57;;;26.50;99.90;;;;;;5014140;28;20141;-81
2023/09/11 09:36:19;;;;;;;23.88;10.98;;;26.60;99.90;;;;;;5032145;28;20045;-82
2023/09/11 09:38:44;;;;;;;18.38;10.70;;;26.60;99.90;;;;;;4998434;28;20048;-81
2023/09/11 09:41:10;;;;;;;18.25;11.32;;;26.70;99.90;;;;;;5013625;28;20072;-82
2023/09/11 09:43:36;;;;;;;17.60;10.45;;;26.70;99.90;;;;;;5032669;28;20041;-83
2023/09/11 09:46:21;;;;;;;17.48;10.43;;;26.80;99.90;;;;;;5014660;28;20099;-81
2023/09/11 09:48:47;;;;;;;17.50;10.23;;;26.90;99.90;;;;;;5014123;28;20049;-82
2023/09/11 09:51:13;;;;;;;16.45;10.88;;;27.00;99.90;;;;;;5014362;28;20029;-81
2023/09/11 09:53:45;;;;;;;12.90;10.77;;;27.00;99.90;;;;;;5014355;28;20393;-82
2023/09/11 09:56:12;;;;;;;16.05;9.77;;;27.00;99.90;;;;;;5014025;28;20436;-81
2023/09/11 09:58:43;;;;;;;18.38;11.07;;;27.10;99.90;;;;;;4997780;28;20044;-81
2023/09/11 10:01:13;;;;;;;16.98;11.07;;;27.20;99.90;;;;;;5030368;28;20037;-81
2023/09/11 10:03:53;;;;;;;16.10;11.02;;;27.20;99.90;;;;;;5014228;28;20052;-82
2023/09/11 10:06:27;;;;;;;18.45;11.43;;;27.30;99.90;;;;;;4997603;28;20437;-83
2023/09/11 10:09:13;;;;;;;22.58;12.20;;;27.40;99.90;;;;;;5014141;28;20224;-82
2023/09/11 10:11:41;;;;;;;16.98;12.45;;;27.50;99.90;;;;;;5024626;28;20416;-82
2023/09/11 10:14:09;;;;;;;16.45;11.57;;;27.50;99.90;;;;;;5030432;28;20049;-81
2023/09/11 10:16:35;;;;;;;16.45;11.18;;;27.60;99.90;;;;;;5013988;28;20541;-82
2023/09/11 10:19:02;;;;;;;14.95;11.93;;;27.70;99.90;;;;;;5014040;28;20120;-82
2023/09/11 10:21:29;;;;;;;15.80;10.52;;;27.60;99.90;;;;;;5030572;28;20374;-82
2023/09/11 10:23:56;;;;;;;18.65;12.43;;;27.70;99.90;;;;;;5031412;28;20532;-82
2023/09/11 10:26:46;;;;;;;17.83;12.10;;;27.70;99.90;;;;;;5030761;28;20421;-82
2023/09/11 10:29:38;;;;;;;17.00;11.98;;;27.70;99.90;;;;;;5029893;28;20493;-85
2023/09/11 10:32:18;;;;;;;22.80;12.77;;;27.70;99.90;;;;;;5015301;28;20112;-82
2023/09/11 10:34:47;;;;;;;15.07;11.65;;;27.70;99.90;;;;;;5013890;28;20501;-82
2023/09/11 10:37:14;;;;;;;16.85;13.00;;;27.80;99.90;;;;;;5030669;28;20041;-81
2023/09/11 10:39:39;;;;;;;16.95;12.52;;;27.80;99.90;;;;;;5030352;28;20404;-82
2023/09/11 10:42:05;;;;;;;16.27;13.55;;;27.70;99.90;;;;;;5030396;28;20112;-83
2023/09/11 10:44:36;;;;;;;15.45;11.13;;;27.80;99.90;;;;;;5014234;28;20197;-82
2023/09/11 10:47:04;;;;;;;12.75;11.30;;;27.80;99.90;;;;;;5013707;28;20519;-82
2023/09/11 10:49:35;;;;;;;13.68;11.38;;;28.00;99.90;;;;;;5030199;28;20041;-82
2023/09/11 10:52:06;;;;;;;14.82;10.80;;;28.00;99.90;;;;;;5030038;28;20069;-82
2023/09/11 10:54:33;;;;;;;15.68;11.48;;;28.10;99.90;;;;;;5030224;28;20046;-82
2023/09/11 10:56:59;;;;;;;14.25;10.88;;;28.10;99.90;;;;;;5031104;28;20041;-82
2023/09/11 10:59:25;;;;;;;15.15;10.65;;;28.20;99.90;;;;;;5030701;28;20041;-82
2023/09/11 11:01:51;;;;;;;12.98;10.93;;;28.20;99.90;;;;;;5014528;28;20047;-81
2023/09/11 11:04:17;;;;;;;14.18;10.02;;;28.30;99.90;;;;;;5015830;28;20044;-82
2023/09/11 11:06:45;;;;;;;14.88;11.35;;;28.40;99.90;;;;;;4997481;28;20029;-82
2023/09/11 11:09:30;;;;;;;15.27;10.88;;;28.40;99.90;;;;;;5013848;28;20136;-82
2023/09/11 11:12:02;;;;;;;13.38;11.50;;;28.50;99.90;;;;;;5013959;28;20116;-81
2023/09/11 11:14:28;;;;;;;13.18;10.98;;;28.40;99.90;;;;;;5031859;28;20041;-82
2023/09/11 11:16:59;;;;;;;13.48;11.75;;;28.50;99.90;;;;;;5013310;28;20504;-85
2023/09/11 11:19:27;;;;;;;16.98;12.60;;;28.50;99.90;;;;;;5012913;28;20045;-82
2023/09/11 11:21:53;;;;;;;12.57;11.25;;;28.50;99.90;;;;;;5013556;28;20390;-83
2023/09/11 11:24:23;;;;;;;15.63;10.95;;;28.50;99.90;;;;;;5032273;28;20072;-82
2023/09/11 11:26:49;;;;;;;13.35;11.20;;;28.70;99.90;;;;;;5033453;28;20045;-82
2023/09/11 11:29:16;;;;;;;17.67;12.43;;;28.70;99.90;;;;;;5016773;28;20094;-81
2023/09/11 11:31:43;;;;;;;11.57;10.05;;;28.80;99.90;;;;;;5016881;28;20037;-82
2023/09/11 11:34:11;;;;;;;13.32;9.95;;;28.80;99.90;;;;;;5010590;28;20054;-82
2023/09/11 11:36:40;;;;;;;15.43;10.00;;;28.80;99.90;;;;;;5012306;28;20069;-82
2023/09/11 11:39:06;;;;;;;14.70;10.55;;;28.90;99.90;;;;;;5017057;28;20041;-82
2023/09/11 11:41:36;;;;;;;12.98;11.45;;;28.80;99.90;;;;;;5016534;28;20065;-82
2023/09/11 11:44:02;;;;;;;14.73;11.82;;;28.80;99.90;;;;;;5033638;28;20072;-82
2023/09/11 11:46:32;;;;;;;15.85;11.18;;;28.80;99.90;;;;;;5032949;28;20053;-82
2023/09/11 11:48:58;;;;;;;12.35;10.40;;;28.80;99.90;;;;;;5032722;28;20580;-82
2023/09/11 11:51:31;;;;;;;13.45;11.48;;;28.90;99.90;;;;;;5016474;28;20124;-82
2023/09/11 11:53:57;;;;;;;13.27;11.65;;;29.00;99.90;;;;;;5000092;28;20500;-82
2023/09/11 11:56:26;;;;;;;14.75;12.18;;;28.90;99.90;;;;;;5014873;28;20485;-83
2023/09/11 11:58:55;;;;;;;18.00;11.45;;;28.90;99.90;;;;;;5016308;28;20045;-83
2023/09/11 12:01:21;;;;;;;16.88;11.50;;;29.00;99.90;;;;;;5033079;28;20525;-83
2023/09/11 12:03:49;;;;;;;13.45;11.52;;;28.90;99.90;;;;;;5016851;28;20112;-82
2023/09/11 12:06:15;;;;;;;13.43;11.05;;;29.00;99.90;;;;;;5016429;28;20053;-82
2023/09/11 12:08:43;;;;;;;12.95;11.32;;;29.10;99.90;;;;;;5016388;28;20413;-82
2023/09/11 12:11:10;;;;;;;13.85;11.40;;;29.10;99.90;;;;;;5032592;28;20171;-82
2023/09/11 12:13:37;;;;;;;14.73;11.07;;;29.10;99.90;;;;;;5033968;28;20045;-83
2023/09/11 12:16:03;;;;;;;13.48;10.27;;;29.10;99.90;;;;;;5033362;28;20029;-83
2023/09/11 12:18:31;;;;;;;13.57;10.77;;;29.10;99.90;;;;;;5016273;28;20056;-82
2023/09/11 12:21:05;;;;;;;16.63;11.35;;;29.10;99.90;;;;;;5032983;28;20045;-82
2023/09/11 12:23:31;;;;;;;12.18;10.73;;;29.00;99.90;;;;;;5034080;28;20116;-83
2023/09/11 12:25:58;;;;;;;13.23;10.70;;;29.00;99.90;;;;;;5033268;28;20053;-82
2023/09/11 12:28:25;;;;;;;10.95;9.85;;;29.10;99.90;;;;;;5017976;28;20539;-82